INFORMACIÓN METAR y TAF
METAR FOR LEVC
ADDS - METARS form results

(0238 UTC 25 April 2018)
Data provider http://aviationweather.gov/adds/metars/
 
METAR text: LEVC 250200Z 00000KT CAVOK 14/08 Q1017 NOSIG
Conditions at: LEVC (VALENCIA (CIV/MI, ES) observed 0200 UTC 25 April 2018
Temperature: 14.0°C (57°F)
Dewpoint: 8.0°C (46°F) [RH = 67%]
Pressure (altimeter): 30.03 inches Hg (1017.0 mb)
Winds: calm
Visibility: 6 or more miles (10+ km)
Ceiling: ceiling and visibility are OK
Clouds: unknown
Weather: no significant weather observed at this time

Forecast for: LEVC (VALENCIA (CIV/MI, ES)
Text: TAF LEVC 242300Z 2500/2524 VRB03KT 9999 FEW040 TX25/2513Z TN12/2506Z
Forecast period: 0000 to 0800 UTC 25 April 2018
Forecast type: FROM: standard forecast or significant change
Winds: variable direction winds at 3 MPH (3 knots; 1.6 m/s)
Visibility: 6 or more miles (10+ km)
Clouds: few clouds at 4000 feet AGL
Weather: no significant weather forecast for this period
Forecast for: LEVC (VALENCIA (CIV/MI, ES)
Text: TAF LEVC 242300Z 2500/2524 VRB03KT 9999 FEW040 TX25/2513Z TN12/2506Z
Forecast period: 0000 to 0800 UTC 25 April 2018
Forecast type: FROM: standard forecast or significant change
Winds: variable direction winds at 3 MPH (3 knots; 1.6 m/s)
Visibility: 6 or more miles (10+ km)
Clouds: few clouds at 4000 feet AGL
Weather: no significant weather forecast for this period
Forecast for: LEVC (VALENCIA (CIV/MI, ES)
Text: TAF LEVC 242300Z 2500/2524 VRB03KT 9999 FEW040 TX25/2513Z TN12/2506Z
Forecast period: 0800 to 1800 UTC 25 April 2018
Forecast type: BECOMING: Conditions expected to become as follows by 1100 UTC 25 April 2018
Winds: from the E (90 degrees) at 12 MPH (10 knots; 5.2 m/s)
Visibility: 6 or more miles (10+ km)
Clouds: few clouds at 4000 feet AGL
Weather: no significant weather forecast for this period
Forecast for: LEVC (VALENCIA (CIV/MI, ES)
Text: TAF LEVC 242300Z 2500/2524 VRB03KT 9999 FEW040 TX25/2513Z TN12/2506Z
Forecast period: 0800 to 1800 UTC 25 April 2018
Forecast type: BECOMING: Conditions expected to become as follows by 1100 UTC 25 April 2018
Winds: from the E (90 degrees) at 12 MPH (10 knots; 5.2 m/s)
Visibility: 6 or more miles (10+ km)
Clouds: few clouds at 4000 feet AGL
Weather: no significant weather forecast for this period
Forecast for: LEVC (VALENCIA (CIV/MI, ES)
Text: TAF LEVC 242300Z 2500/2524 VRB03KT 9999 FEW040 TX25/2513Z TN12/2506Z
Forecast period: 1200 to 1400 UTC 25 April 2018
Forecast type: TEMPORARY: The following changes expected for less than half the time period
Winds: from the E (90 degrees) at 12 MPH (10 knots; 5.2 m/s)
gusting to 25 MPH (22 knots; 11.4 m/s)
Weather: no significant weather forecast for this period
Forecast for: LEVC (VALENCIA (CIV/MI, ES)
Text: TAF LEVC 242300Z 2500/2524 VRB03KT 9999 FEW040 TX25/2513Z TN12/2506Z
Forecast period: 1200 to 1400 UTC 25 April 2018
Forecast type: TEMPORARY: The following changes expected for less than half the time period
Winds: from the E (90 degrees) at 12 MPH (10 knots; 5.2 m/s)
gusting to 25 MPH (22 knots; 11.4 m/s)
Weather: no significant weather forecast for this period
Forecast for: LEVC (VALENCIA (CIV/MI, ES)
Text: TAF LEVC 242300Z 2500/2524 VRB03KT 9999 FEW040 TX25/2513Z TN12/2506Z
Forecast period: 1800 UTC 25 April 2018 to 0000 UTC 26 April 2018
Forecast type: BECOMING: Conditions expected to become as follows by 2000 UTC 25 April 2018
Winds: variable direction winds at 3 MPH (3 knots; 1.6 m/s)
Visibility: 6 or more miles (10+ km)
Clouds: few clouds at 4000 feet AGL
Weather: no significant weather forecast for this period
Forecast for: LEVC (VALENCIA (CIV/MI, ES)
Text: TAF LEVC 242300Z 2500/2524 VRB03KT 9999 FEW040 TX25/2513Z TN12/2506Z
Forecast period: 1800 UTC 25 April 2018 to 0000 UTC 26 April 2018
Forecast type: BECOMING: Conditions expected to become as follows by 2000 UTC 25 April 2018
Winds: variable direction winds at 3 MPH (3 knots; 1.6 m/s)
Visibility: 6 or more miles (10+ km)
Clouds: few clouds at 4000 feet AGL
Weather: no significant weather forecast for this period

 MAPA DE AEROPUERTO

 INFORMACIÓN DE PISTA
Pista 04 Longitud 5394 ft Ancho 148 ft
Elevación 205 ft Umbral desplazado 0 ft Rumbo de pista 38
Pista 22 Longitud 5394 ft Ancho 148 ft
Elevación 188 ft Umbral desplazado 0 ft Rumbo de pista 218
Pista 12 Longitud 8858 ft Ancho 148 ft
Elevación 225 ft Umbral desplazado 0 ft Rumbo de pista 116
Pista 30 Longitud 8858 ft Ancho 148 ft
Elevación 172 ft Umbral desplazado 0 ft Rumbo de pista 296

 FRECUANCIAS DEL AEROPUERTO
Tipo APP Nombre APP Frecuencia 120.1 MHZ
Tipo ATIS Nombre ATIS Frecuencia 121.075 MHZ
Tipo GND Nombre GND Frecuencia 121.7 MHZ
Tipo TWR Nombre TWR Frecuencia 118.55 MHZ

 RADIO AYUDAS DEL AEROPUERTO
Tipo NDB Nombre Valencia Frecuencia 400 KHZ
Tipo NDB Nombre Valencia Frecuencia 340 KHZ
Tipo NDB Nombre Sagunto Frecuencia 356 KHZ
Tipo VOR-DME Nombre Valencia Frecuencia 116100 KHZ